sensor_id;sensor_type;location;lat;lon;timestamp;P1;durP1;ratioP1;P2;durP2;ratioP2
8042;SDS011;4064;48.132;11.366;2022-12-11T00:01:07;40.23;;;25.70;;
8042;SDS011;4064;48.132;11.366;2022-12-11T00:03:37;34.67;;;23.20;;
8042;SDS011;4064;48.132;11.366;2022-12-11T00:06:04;38.90;;;24.52;;
8042;SDS011;4064;48.132;11.366;2022-12-11T00:08:35;36.67;;;24.58;;
8042;SDS011;4064;48.132;11.366;2022-12-11T00:11:01;34.92;;;22.45;;
8042;SDS011;4064;48.132;11.366;2022-12-11T00:13:27;38.97;;;26.60;;
8042;SDS011;4064;48.132;11.366;2022-12-11T00:15:52;40.33;;;25.60;;
8042;SDS011;4064;48.132;11.366;2022-12-11T00:18:18;35.63;;;21.83;;
8042;SDS011;4064;48.132;11.366;2022-12-11T00:20:43;31.67;;;21.50;;
8042;SDS011;4064;48.132;11.366;2022-12-11T00:23:09;36.73;;;23.03;;
8042;SDS011;4064;48.132;11.366;2022-12-11T00:25:39;34.83;;;22.60;;
8042;SDS011;4064;48.132;11.366;2022-12-11T00:28:06;34.13;;;23.08;;
8042;SDS011;4064;48.132;11.366;2022-12-11T00:30:32;36.67;;;24.27;;
8042;SDS011;4064;48.132;11.366;2022-12-11T00:32:57;34.83;;;23.73;;
8042;SDS011;4064;48.132;11.366;2022-12-11T00:35:23;31.73;;;22.13;;
8042;SDS011;4064;48.132;11.366;2022-12-11T00:37:48;36.30;;;22.77;;
8042;SDS011;4064;48.132;11.366;2022-12-11T00:40:14;33.60;;;21.87;;
8042;SDS011;4064;48.132;11.366;2022-12-11T00:42:40;30.70;;;20.90;;
8042;SDS011;4064;48.132;11.366;2022-12-11T00:45:05;31.40;;;22.33;;
8042;SDS011;4064;48.132;11.366;2022-12-11T00:47:31;32.13;;;21.90;;
8042;SDS011;4064;48.132;11.366;2022-12-11T00:49:57;36.37;;;23.07;;
8042;SDS011;4064;48.132;11.366;2022-12-11T00:52:22;30.77;;;20.93;;
8042;SDS011;4064;48.132;11.366;2022-12-11T00:54:48;30.10;;;22.03;;
8042;SDS011;4064;48.132;11.366;2022-12-11T00:57:14;28.60;;;19.80;;
8042;SDS011;4064;48.132;11.366;2022-12-11T00:59:39;37.37;;;23.50;;
8042;SDS011;4064;48.132;11.366;2022-12-11T01:02:05;27.40;;;20.13;;
8042;SDS011;4064;48.132;11.366;2022-12-11T01:04:30;27.77;;;17.87;;
8042;SDS011;4064;48.132;11.366;2022-12-11T01:06:58;29.80;;;19.25;;
8042;SDS011;4064;48.132;11.366;2022-12-11T01:09:24;26.33;;;18.87;;
8042;SDS011;4064;48.132;11.366;2022-12-11T01:12:08;29.38;;;19.02;;
8042;SDS011;4064;48.132;11.366;2022-12-11T01:14:34;27.67;;;18.80;;
8042;SDS011;4064;48.132;11.366;2022-12-11T01:16:59;24.83;;;18.00;;
8042;SDS011;4064;48.132;11.366;2022-12-11T01:19:25;30.23;;;20.03;;
8042;SDS011;4064;48.132;11.366;2022-12-11T01:21:50;24.53;;;18.67;;
8042;SDS011;4064;48.132;11.366;2022-12-11T01:24:16;25.83;;;18.20;;
8042;SDS011;4064;48.132;11.366;2022-12-11T01:26:42;24.13;;;18.10;;
8042;SDS011;4064;48.132;11.366;2022-12-11T01:29:07;28.57;;;18.57;;
8042;SDS011;4064;48.132;11.366;2022-12-11T01:31:33;32.70;;;20.90;;
8042;SDS011;4064;48.132;11.366;2022-12-11T01:33:58;27.50;;;19.40;;
8042;SDS011;4064;48.132;11.366;2022-12-11T01:36:24;25.43;;;18.53;;
8042;SDS011;4064;48.132;11.366;2022-12-11T01:38:50;29.03;;;18.90;;
8042;SDS011;4064;48.132;11.366;2022-12-11T01:41:18;30.20;;;19.40;;
8042;SDS011;4064;48.132;11.366;2022-12-11T01:46:33;24.15;;;18.08;;
8042;SDS011;4064;48.132;11.366;2022-12-11T01:49:01;26.95;;;17.42;;
8042;SDS011;4064;48.132;11.366;2022-12-11T01:51:30;26.67;;;17.98;;
8042;SDS011;4064;48.132;11.366;2022-12-11T01:54:00;26.85;;;16.67;;
8042;SDS011;4064;48.132;11.366;2022-12-11T01:56:30;25.85;;;17.70;;
8042;SDS011;4064;48.132;11.366;2022-12-11T01:58:58;25.75;;;18.50;;
8042;SDS011;4064;48.132;11.366;2022-12-11T02:01:42;27.35;;;17.80;;
8042;SDS011;4064;48.132;11.366;2022-12-11T02:04:11;28.75;;;16.95;;
8042;SDS011;4064;48.132;11.366;2022-12-11T02:06:39;22.55;;;18.13;;
8042;SDS011;4064;48.132;11.366;2022-12-11T02:09:08;24.92;;;16.58;;
8042;SDS011;4064;48.132;11.366;2022-12-11T02:17:15;27.60;;;17.75;;
8042;SDS011;4064;48.132;11.366;2022-12-11T02:19:48;26.17;;;18.48;;
8042;SDS011;4064;48.132;11.366;2022-12-11T02:25:31;24.73;;;17.85;;
8042;SDS011;4064;48.132;11.366;2022-12-11T02:30:41;26.40;;;17.27;;
8042;SDS011;4064;48.132;11.366;2022-12-11T02:33:13;27.25;;;18.00;;
8042;SDS011;4064;48.132;11.366;2022-12-11T02:35:41;27.33;;;18.02;;
8042;SDS011;4064;48.132;11.366;2022-12-11T02:38:20;22.98;;;17.02;;
8042;SDS011;4064;48.132;11.366;2022-12-11T02:40:49;24.85;;;17.83;;
8042;SDS011;4064;48.132;11.366;2022-12-11T02:43:17;28.65;;;18.70;;
8042;SDS011;4064;48.132;11.366;2022-12-11T02:45:47;26.23;;;17.75;;
8042;SDS011;4064;48.132;11.366;2022-12-11T02:48:15;25.33;;;16.50;;
8042;SDS011;4064;48.132;11.366;2022-12-11T02:50:42;21.73;;;15.65;;
8042;SDS011;4064;48.132;11.366;2022-12-11T02:53:11;22.85;;;16.85;;
8042;SDS011;4064;48.132;11.366;2022-12-11T02:55:40;28.42;;;17.80;;
8042;SDS011;4064;48.132;11.366;2022-12-11T02:58:20;22.50;;;17.85;;
8042;SDS011;4064;48.132;11.366;2022-12-11T03:00:52;29.42;;;17.95;;
8042;SDS011;4064;48.132;11.366;2022-12-11T03:03:17;24.50;;;19.07;;
8042;SDS011;4064;48.132;11.366;2022-12-11T03:05:43;24.90;;;17.60;;
8042;SDS011;4064;48.132;11.366;2022-12-11T03:08:10;25.13;;;16.50;;
8042;SDS011;4064;48.132;11.366;2022-12-11T03:10:36;25.90;;;17.33;;
8042;SDS011;4064;48.132;11.366;2022-12-11T03:13:01;22.57;;;18.07;;
8042;SDS011;4064;48.132;11.366;2022-12-11T03:15:45;23.50;;;17.75;;
8042;SDS011;4064;48.132;11.366;2022-12-11T03:18:22;28.10;;;18.75;;
8042;SDS011;4064;48.132;11.366;2022-12-11T03:21:07;24.48;;;17.52;;
8042;SDS011;4064;48.132;11.366;2022-12-11T03:26:29;24.70;;;17.15;;
8042;SDS011;4064;48.132;11.366;2022-12-11T03:29:01;27.27;;;16.88;;
8042;SDS011;4064;48.132;11.366;2022-12-11T03:31:36;25.35;;;19.10;;
8042;SDS011;4064;48.132;11.366;2022-12-11T03:34:09;28.08;;;16.70;;
8042;SDS011;4064;48.132;11.366;2022-12-11T03:36:52;22.63;;;16.23;;
8042;SDS011;4064;48.132;11.366;2022-12-11T03:39:38;27.52;;;17.35;;
8042;SDS011;4064;48.132;11.366;2022-12-11T03:42:09;23.25;;;16.13;;
8042;SDS011;4064;48.132;11.366;2022-12-11T03:44:37;25.67;;;16.90;;
8042;SDS011;4064;48.132;11.366;2022-12-11T03:47:06;24.27;;;16.90;;
8042;SDS011;4064;48.132;11.366;2022-12-11T03:49:34;20.92;;;15.38;;
8042;SDS011;4064;48.132;11.366;2022-12-11T03:52:03;23.85;;;16.95;;
8042;SDS011;4064;48.132;11.366;2022-12-11T03:54:31;20.73;;;14.98;;
8042;SDS011;4064;48.132;11.366;2022-12-11T03:56:58;22.55;;;16.15;;
8042;SDS011;4064;48.132;11.366;2022-12-11T03:59:26;26.20;;;18.88;;
8042;SDS011;4064;48.132;11.366;2022-12-11T04:01:51;21.00;;;15.13;;
8042;SDS011;4064;48.132;11.366;2022-12-11T04:04:17;23.67;;;16.73;;
8042;SDS011;4064;48.132;11.366;2022-12-11T04:06:43;25.70;;;16.03;;
8042;SDS011;4064;48.132;11.366;2022-12-11T04:09:08;22.50;;;16.43;;
8042;SDS011;4064;48.132;11.366;2022-12-11T04:11:34;21.97;;;17.13;;
8042;SDS011;4064;48.132;11.366;2022-12-11T04:14:04;26.13;;;17.13;;
8042;SDS011;4064;48.132;11.366;2022-12-11T04:16:50;24.95;;;17.88;;
8042;SDS011;4064;48.132;11.366;2022-12-11T04:19:17;28.20;;;16.23;;
8042;SDS011;4064;48.132;11.366;2022-12-11T04:22:02;24.58;;;15.32;;
8042;SDS011;4064;48.132;11.366;2022-12-11T04:24:47;23.67;;;15.07;;
8042;SDS011;4064;48.132;11.366;2022-12-11T04:27:14;21.20;;;15.52;;
8042;SDS011;4064;48.132;11.366;2022-12-11T04:30:05;22.98;;;17.60;;
8042;SDS011;4064;48.132;11.366;2022-12-11T04:32:34;24.75;;;17.23;;
8042;SDS011;4064;48.132;11.366;2022-12-11T04:35:00;28.30;;;18.77;;
8042;SDS011;4064;48.132;11.366;2022-12-11T04:37:26;26.87;;;19.03;;
8042;SDS011;4064;48.132;11.366;2022-12-11T04:39:52;20.95;;;16.13;;
8042;SDS011;4064;48.132;11.366;2022-12-11T04:42:18;23.50;;;17.73;;
8042;SDS011;4064;48.132;11.366;2022-12-11T04:44:43;25.03;;;17.13;;
8042;SDS011;4064;48.132;11.366;2022-12-11T04:47:09;26.77;;;18.27;;
8042;SDS011;4064;48.132;11.366;2022-12-11T04:49:35;23.90;;;16.50;;
8042;SDS011;4064;48.132;11.366;2022-12-11T04:52:00;29.20;;;19.07;;
8042;SDS011;4064;48.132;11.366;2022-12-11T04:54:27;23.90;;;17.77;;
8042;SDS011;4064;48.132;11.366;2022-12-11T04:56:54;25.58;;;17.30;;
8042;SDS011;4064;48.132;11.366;2022-12-11T04:59:19;28.17;;;19.03;;
8042;SDS011;4064;48.132;11.366;2022-12-11T05:01:45;26.07;;;17.13;;
8042;SDS011;4064;48.132;11.366;2022-12-11T05:04:10;28.13;;;18.87;;
8042;SDS011;4064;48.132;11.366;2022-12-11T05:06:36;26.23;;;18.70;;
8042;SDS011;4064;48.132;11.366;2022-12-11T05:09:02;24.33;;;18.00;;
8042;SDS011;4064;48.132;11.366;2022-12-11T05:11:27;26.55;;;18.25;;
8042;SDS011;4064;48.132;11.366;2022-12-11T05:13:53;28.20;;;18.70;;
8042;SDS011;4064;48.132;11.366;2022-12-11T05:16:19;28.37;;;18.00;;
8042;SDS011;4064;48.132;11.366;2022-12-11T05:18:45;27.90;;;17.37;;
8042;SDS011;4064;48.132;11.366;2022-12-11T05:21:12;26.88;;;16.90;;
8042;SDS011;4064;48.132;11.366;2022-12-11T05:23:39;25.63;;;17.15;;
8042;SDS011;4064;48.132;11.366;2022-12-11T05:26:06;28.63;;;19.33;;
8042;SDS011;4064;48.132;11.366;2022-12-11T05:28:36;21.30;;;16.60;;
8042;SDS011;4064;48.132;11.366;2022-12-11T05:31:07;23.13;;;15.98;;
8042;SDS011;4064;48.132;11.366;2022-12-11T05:33:37;26.85;;;18.15;;
8042;SDS011;4064;48.132;11.366;2022-12-11T05:36:02;27.47;;;17.47;;
8042;SDS011;4064;48.132;11.366;2022-12-11T05:38:28;24.63;;;16.58;;
8042;SDS011;4064;48.132;11.366;2022-12-11T05:40:55;27.07;;;17.83;;
8042;SDS011;4064;48.132;11.366;2022-12-11T05:43:22;27.88;;;17.85;;
8042;SDS011;4064;48.132;11.366;2022-12-11T05:45:48;27.90;;;18.17;;
8042;SDS011;4064;48.132;11.366;2022-12-11T05:48:14;30.23;;;20.60;;
8042;SDS011;4064;48.132;11.366;2022-12-11T05:50:39;22.13;;;17.30;;
8042;SDS011;4064;48.132;11.366;2022-12-11T05:53:05;27.17;;;16.40;;
8042;SDS011;4064;48.132;11.366;2022-12-11T05:55:34;27.80;;;18.47;;
8042;SDS011;4064;48.132;11.366;2022-12-11T05:57:59;23.42;;;16.75;;
8042;SDS011;4064;48.132;11.366;2022-12-11T06:00:25;24.30;;;17.37;;
8042;SDS011;4064;48.132;11.366;2022-12-11T06:02:50;27.60;;;18.80;;
8042;SDS011;4064;48.132;11.366;2022-12-11T06:05:16;24.40;;;17.30;;
8042;SDS011;4064;48.132;11.366;2022-12-11T06:07:42;24.60;;;16.40;;
8042;SDS011;4064;48.132;11.366;2022-12-11T06:10:07;28.93;;;17.53;;
8042;SDS011;4064;48.132;11.366;2022-12-11T06:12:33;27.52;;;17.80;;
8042;SDS011;4064;48.132;11.366;2022-12-11T06:14:59;27.53;;;17.50;;
8042;SDS011;4064;48.132;11.366;2022-12-11T06:17:24;24.03;;;16.73;;
8042;SDS011;4064;48.132;11.366;2022-12-11T06:19:50;20.70;;;15.67;;
8042;SDS011;4064;48.132;11.366;2022-12-11T06:22:15;22.17;;;16.33;;
8042;SDS011;4064;48.132;11.366;2022-12-11T06:24:41;24.73;;;16.27;;
8042;SDS011;4064;48.132;11.366;2022-12-11T06:27:07;28.33;;;17.67;;
8042;SDS011;4064;48.132;11.366;2022-12-11T06:29:33;27.27;;;20.10;;
8042;SDS011;4064;48.132;11.366;2022-12-11T06:31:58;24.60;;;17.77;;
8042;SDS011;4064;48.132;11.366;2022-12-11T06:34:24;28.03;;;19.60;;
8042;SDS011;4064;48.132;11.366;2022-12-11T06:36:49;24.80;;;18.20;;
8042;SDS011;4064;48.132;11.366;2022-12-11T06:39:15;27.17;;;18.00;;
8042;SDS011;4064;48.132;11.366;2022-12-11T06:41:40;23.13;;;16.33;;
8042;SDS011;4064;48.132;11.366;2022-12-11T06:44:06;26.40;;;18.13;;
8042;SDS011;4064;48.132;11.366;2022-12-11T06:46:32;25.77;;;17.17;;
8042;SDS011;4064;48.132;11.366;2022-12-11T06:48:58;25.13;;;17.40;;
8042;SDS011;4064;48.132;11.366;2022-12-11T06:51:24;23.97;;;17.07;;
8042;SDS011;4064;48.132;11.366;2022-12-11T06:53:50;25.17;;;16.97;;
8042;SDS011;4064;48.132;11.366;2022-12-11T06:56:17;24.95;;;16.70;;
8042;SDS011;4064;48.132;11.366;2022-12-11T06:58:42;33.03;;;19.27;;
8042;SDS011;4064;48.132;11.366;2022-12-11T07:01:26;27.73;;;17.63;;
8042;SDS011;4064;48.132;11.366;2022-12-11T07:03:53;24.05;;;16.88;;
8042;SDS011;4064;48.132;11.366;2022-12-11T07:06:20;27.45;;;18.30;;
8042;SDS011;4064;48.132;11.366;2022-12-11T07:08:46;26.13;;;17.55;;
8042;SDS011;4064;48.132;11.366;2022-12-11T07:11:13;30.43;;;17.00;;
8042;SDS011;4064;48.132;11.366;2022-12-11T07:13:39;25.35;;;17.70;;
8042;SDS011;4064;48.132;11.366;2022-12-11T07:16:08;24.98;;;17.48;;
8042;SDS011;4064;48.132;11.366;2022-12-11T07:18:36;27.23;;;19.30;;
8042;SDS011;4064;48.132;11.366;2022-12-11T07:21:03;23.63;;;18.65;;
8042;SDS011;4064;48.132;11.366;2022-12-11T07:23:29;24.08;;;16.70;;
8042;SDS011;4064;48.132;11.366;2022-12-11T07:25:55;24.57;;;16.87;;
8042;SDS011;4064;48.132;11.366;2022-12-11T07:28:21;28.70;;;18.73;;
8042;SDS011;4064;48.132;11.366;2022-12-11T07:30:47;28.20;;;18.35;;
8042;SDS011;4064;48.132;11.366;2022-12-11T07:33:13;24.13;;;17.33;;
8042;SDS011;4064;48.132;11.366;2022-12-11T07:35:39;29.77;;;19.02;;
8042;SDS011;4064;48.132;11.366;2022-12-11T07:38:05;26.23;;;17.97;;
8042;SDS011;4064;48.132;11.366;2022-12-11T07:40:32;23.57;;;15.43;;
8042;SDS011;4064;48.132;11.366;2022-12-11T07:42:57;23.92;;;16.90;;
8042;SDS011;4064;48.132;11.366;2022-12-11T07:45:23;27.63;;;18.27;;
8042;SDS011;4064;48.132;11.366;2022-12-11T07:47:50;25.60;;;17.25;;
8042;SDS011;4064;48.132;11.366;2022-12-11T07:50:16;24.65;;;17.33;;
8042;SDS011;4064;48.132;11.366;2022-12-11T07:52:42;28.77;;;19.58;;
8042;SDS011;4064;48.132;11.366;2022-12-11T07:55:08;26.37;;;17.73;;
8042;SDS011;4064;48.132;11.366;2022-12-11T07:57:34;23.08;;;16.02;;
8042;SDS011;4064;48.132;11.366;2022-12-11T08:00:01;30.90;;;18.05;;
8042;SDS011;4064;48.132;11.366;2022-12-11T08:02:26;26.50;;;16.80;;
8042;SDS011;4064;48.132;11.366;2022-12-11T08:04:52;26.83;;;18.73;;
8042;SDS011;4064;48.132;11.366;2022-12-11T08:07:18;24.47;;;16.77;;
8042;SDS011;4064;48.132;11.366;2022-12-11T08:09:43;27.57;;;19.80;;
8042;SDS011;4064;48.132;11.366;2022-12-11T08:12:09;24.73;;;17.90;;
8042;SDS011;4064;48.132;11.366;2022-12-11T08:14:34;24.00;;;17.60;;
8042;SDS011;4064;48.132;11.366;2022-12-11T08:17:00;21.80;;;17.43;;
8042;SDS011;4064;48.132;11.366;2022-12-11T08:19:26;24.75;;;18.33;;
8042;SDS011;4064;48.132;11.366;2022-12-11T08:21:52;28.30;;;18.53;;
8042;SDS011;4064;48.132;11.366;2022-12-11T08:24:18;22.90;;;15.80;;
8042;SDS011;4064;48.132;11.366;2022-12-11T08:26:45;23.42;;;17.27;;
8042;SDS011;4064;48.132;11.366;2022-12-11T08:29:11;22.05;;;16.10;;
8042;SDS011;4064;48.132;11.366;2022-12-11T08:31:38;23.08;;;15.68;;
8042;SDS011;4064;48.132;11.366;2022-12-11T08:34:04;23.50;;;16.60;;
8042;SDS011;4064;48.132;11.366;2022-12-11T08:36:30;24.63;;;16.20;;
8042;SDS011;4064;48.132;11.366;2022-12-11T08:38:56;22.60;;;17.13;;
8042;SDS011;4064;48.132;11.366;2022-12-11T08:41:23;19.63;;;14.43;;
8042;SDS011;4064;48.132;11.366;2022-12-11T08:43:50;20.67;;;14.93;;
8042;SDS011;4064;48.132;11.366;2022-12-11T08:46:19;22.42;;;15.23;;
8042;SDS011;4064;48.132;11.366;2022-12-11T08:48:50;17.10;;;13.38;;
8042;SDS011;4064;48.132;11.366;2022-12-11T08:51:17;22.58;;;16.30;;
8042;SDS011;4064;48.132;11.366;2022-12-11T08:53:46;19.80;;;15.93;;
8042;SDS011;4064;48.132;11.366;2022-12-11T08:56:13;18.70;;;14.20;;
8042;SDS011;4064;48.132;11.366;2022-12-11T08:58:43;17.80;;;14.20;;
8042;SDS011;4064;48.132;11.366;2022-12-11T09:01:10;19.23;;;15.20;;
8042;SDS011;4064;48.132;11.366;2022-12-11T09:03:38;19.98;;;14.93;;
8042;SDS011;4064;48.132;11.366;2022-12-11T09:06:05;20.40;;;15.57;;
8042;SDS011;4064;48.132;11.366;2022-12-11T09:08:32;21.52;;;14.95;;
8042;SDS011;4064;48.132;11.366;2022-12-11T09:11:06;18.90;;;15.68;;
8042;SDS011;4064;48.132;11.366;2022-12-11T09:13:37;19.25;;;13.88;;
8042;SDS011;4064;48.132;11.366;2022-12-11T09:16:04;20.25;;;15.32;;
8042;SDS011;4064;48.132;11.366;2022-12-11T09:18:31;17.48;;;13.52;;
8042;SDS011;4064;48.132;11.366;2022-12-11T09:20:57;20.37;;;14.77;;
8042;SDS011;4064;48.132;11.366;2022-12-11T09:23:26;22.15;;;14.65;;
8042;SDS011;4064;48.132;11.366;2022-12-11T09:25:52;16.40;;;12.80;;
8042;SDS011;4064;48.132;11.366;2022-12-11T09:28:18;20.40;;;14.37;;
8042;SDS011;4064;48.132;11.366;2022-12-11T09:30:44;18.77;;;14.03;;
8042;SDS011;4064;48.132;11.366;2022-12-11T09:33:09;18.63;;;13.40;;
8042;SDS011;4064;48.132;11.366;2022-12-11T09:35:35;19.33;;;13.47;;
8042;SDS011;4064;48.132;11.366;2022-12-11T09:38:01;19.57;;;14.30;;
8042;SDS011;4064;48.132;11.366;2022-12-11T09:40:27;16.93;;;13.60;;
8042;SDS011;4064;48.132;11.366;2022-12-11T09:43:02;16.43;;;12.40;;
8042;SDS011;4064;48.132;11.366;2022-12-11T09:45:33;17.60;;;12.35;;
8042;SDS011;4064;48.132;11.366;2022-12-11T09:47:59;18.53;;;12.47;;
8042;SDS011;4064;48.132;11.366;2022-12-11T09:50:27;15.02;;;12.02;;
8042;SDS011;4064;48.132;11.366;2022-12-11T09:53:05;15.77;;;13.05;;
8042;SDS011;4064;48.132;11.366;2022-12-11T09:55:52;17.38;;;13.43;;
8042;SDS011;4064;48.132;11.366;2022-12-11T09:58:28;17.45;;;14.20;;
8042;SDS011;4064;48.132;11.366;2022-12-11T10:01:18;16.35;;;12.65;;
8042;SDS011;4064;48.132;11.366;2022-12-11T10:12:38;18.23;;;11.63;;
8042;SDS011;4064;48.132;11.366;2022-12-11T10:17:49;14.25;;;11.52;;
8042;SDS011;4064;48.132;11.366;2022-12-11T10:20:22;14.70;;;11.75;;
8042;SDS011;4064;48.132;11.366;2022-12-11T10:22:51;13.00;;;11.52;;
8042;SDS011;4064;48.132;11.366;2022-12-11T10:27:46;14.52;;;12.18;;
8042;SDS011;4064;48.132;11.366;2022-12-11T10:35:27;12.75;;;11.45;;
8042;SDS011;4064;48.132;11.366;2022-12-11T10:38:00;12.13;;;10.85;;
8042;SDS011;4064;48.132;11.366;2022-12-11T10:40:44;14.73;;;11.52;;
8042;SDS011;4064;48.132;11.366;2022-12-11T10:43:13;14.52;;;11.80;;
8042;SDS011;4064;48.132;11.366;2022-12-11T10:45:39;14.83;;;13.10;;
8042;SDS011;4064;48.132;11.366;2022-12-11T10:48:13;13.00;;;10.43;;
8042;SDS011;4064;48.132;11.366;2022-12-11T10:50:39;14.07;;;10.80;;
8042;SDS011;4064;48.132;11.366;2022-12-11T10:53:16;12.65;;;11.27;;
8042;SDS011;4064;48.132;11.366;2022-12-11T10:55:45;12.05;;;10.65;;
8042;SDS011;4064;48.132;11.366;2022-12-11T10:58:17;11.88;;;9.43;;
8042;SDS011;4064;48.132;11.366;2022-12-11T11:00:45;11.63;;;10.27;;
8042;SDS011;4064;48.132;11.366;2022-12-11T11:03:23;11.90;;;9.52;;
8042;SDS011;4064;48.132;11.366;2022-12-11T11:06:01;14.18;;;9.52;;
8042;SDS011;4064;48.132;11.366;2022-12-11T11:08:38;12.75;;;11.30;;
8042;SDS011;4064;48.132;11.366;2022-12-11T11:11:05;14.35;;;10.05;;
8042;SDS011;4064;48.132;11.366;2022-12-11T11:13:43;14.73;;;10.90;;
8042;SDS011;4064;48.132;11.366;2022-12-11T11:16:14;11.32;;;10.20;;
8042;SDS011;4064;48.132;11.366;2022-12-11T11:18:53;11.35;;;9.95;;
8042;SDS011;4064;48.132;11.366;2022-12-11T11:21:22;10.45;;;8.50;;
8042;SDS011;4064;48.132;11.366;2022-12-11T11:23:50;9.70;;;8.68;;
8042;SDS011;4064;48.132;11.366;2022-12-11T11:26:18;10.32;;;8.95;;
8042;SDS011;4064;48.132;11.366;2022-12-11T11:28:54;10.80;;;8.50;;
8042;SDS011;4064;48.132;11.366;2022-12-11T11:31:30;11.32;;;8.35;;
8042;SDS011;4064;48.132;11.366;2022-12-11T11:36:28;13.57;;;9.50;;
8042;SDS011;4064;48.132;11.366;2022-12-11T11:41:33;12.57;;;9.88;;
8042;SDS011;4064;48.132;11.366;2022-12-11T11:44:26;11.02;;;8.85;;
8042;SDS011;4064;48.132;11.366;2022-12-11T11:47:01;24.40;;;9.60;;
8042;SDS011;4064;48.132;11.366;2022-12-11T11:49:40;12.43;;;9.57;;
8042;SDS011;4064;48.132;11.366;2022-12-11T11:54:52;12.75;;;10.63;;
8042;SDS011;4064;48.132;11.366;2022-12-11T11:59:57;11.95;;;8.90;;
8042;SDS011;4064;48.132;11.366;2022-12-11T12:02:33;11.57;;;9.80;;
8042;SDS011;4064;48.132;11.366;2022-12-11T12:04:59;13.65;;;10.60;;
8042;SDS011;4064;48.132;11.366;2022-12-11T12:07:39;13.23;;;11.18;;
8042;SDS011;4064;48.132;11.366;2022-12-11T12:26:17;11.73;;;9.73;;
8042;SDS011;4064;48.132;11.366;2022-12-11T12:31:58;10.45;;;8.18;;
8042;SDS011;4064;48.132;11.366;2022-12-11T12:34:36;11.73;;;9.13;;
8042;SDS011;4064;48.132;11.366;2022-12-11T12:39:59;12.50;;;8.45;;
8042;SDS011;4064;48.132;11.366;2022-12-11T12:42:51;13.02;;;8.90;;
8042;SDS011;4064;48.132;11.366;2022-12-11T12:48:16;8.43;;;7.40;;
8042;SDS011;4064;48.132;11.366;2022-12-11T12:50:45;9.13;;;7.80;;
8042;SDS011;4064;48.132;11.366;2022-12-11T12:53:17;8.35;;;7.07;;
8042;SDS011;4064;48.132;11.366;2022-12-11T12:55:46;9.52;;;7.35;;
8042;SDS011;4064;48.132;11.366;2022-12-11T12:58:38;7.80;;;6.85;;
8042;SDS011;4064;48.132;11.366;2022-12-11T13:03:57;9.50;;;7.53;;
8042;SDS011;4064;48.132;11.366;2022-12-11T13:06:28;7.75;;;6.82;;
8042;SDS011;4064;48.132;11.366;2022-12-11T13:09:08;7.72;;;6.32;;
8042;SDS011;4064;48.132;11.366;2022-12-11T13:11:42;6.65;;;5.95;;
8042;SDS011;4064;48.132;11.366;2022-12-11T13:16:39;9.18;;;7.35;;
8042;SDS011;4064;48.132;11.366;2022-12-11T13:22:02;7.07;;;6.30;;
8042;SDS011;4064;48.132;11.366;2022-12-11T13:27:23;7.53;;;6.60;;
8042;SDS011;4064;48.132;11.366;2022-12-11T13:29:50;7.90;;;6.68;;
8042;SDS011;4064;48.132;11.366;2022-12-11T13:32:28;7.90;;;6.95;;
8042;SDS011;4064;48.132;11.366;2022-12-11T13:34:58;6.88;;;6.10;;
8042;SDS011;4064;48.132;11.366;2022-12-11T13:37:37;8.05;;;6.03;;
8042;SDS011;4064;48.132;11.366;2022-12-11T13:40:14;10.65;;;6.65;;
8042;SDS011;4064;48.132;11.366;2022-12-11T13:42:54;9.60;;;6.75;;
8042;SDS011;4064;48.132;11.366;2022-12-11T13:45:27;8.77;;;7.35;;
8042;SDS011;4064;48.132;11.366;2022-12-11T13:47:58;9.63;;;7.68;;
8042;SDS011;4064;48.132;11.366;2022-12-11T13:50:27;9.35;;;7.32;;
8042;SDS011;4064;48.132;11.366;2022-12-11T13:52:56;7.53;;;6.63;;
8042;SDS011;4064;48.132;11.366;2022-12-11T13:55:25;11.60;;;7.32;;
8042;SDS011;4064;48.132;11.366;2022-12-11T13:57:52;10.13;;;8.38;;
8042;SDS011;4064;48.132;11.366;2022-12-11T14:00:19;8.73;;;7.00;;
8042;SDS011;4064;48.132;11.366;2022-12-11T14:02:56;10.10;;;8.02;;
8042;SDS011;4064;48.132;11.366;2022-12-11T14:05:25;7.93;;;7.13;;
8042;SDS011;4064;48.132;11.366;2022-12-11T14:07:52;10.32;;;8.45;;
8042;SDS011;4064;48.132;11.366;2022-12-11T14:10:24;10.23;;;7.55;;
8042;SDS011;4064;48.132;11.366;2022-12-11T14:15:28;12.27;;;9.23;;
8042;SDS011;4064;48.132;11.366;2022-12-11T14:17:55;9.85;;;8.25;;
8042;SDS011;4064;48.132;11.366;2022-12-11T14:20:27;9.48;;;7.40;;
8042;SDS011;4064;48.132;11.366;2022-12-11T14:25:53;12.63;;;8.50;;
8042;SDS011;4064;48.132;11.366;2022-12-11T14:28:20;10.27;;;7.70;;
8042;SDS011;4064;48.132;11.366;2022-12-11T14:30:48;12.18;;;8.57;;
8042;SDS011;4064;48.132;11.366;2022-12-11T14:33:15;12.45;;;8.70;;
8042;SDS011;4064;48.132;11.366;2022-12-11T14:35:45;10.13;;;9.05;;
8042;SDS011;4064;48.132;11.366;2022-12-11T14:38:15;9.38;;;8.45;;
8042;SDS011;4064;48.132;11.366;2022-12-11T14:40:48;11.38;;;8.95;;
8042;SDS011;4064;48.132;11.366;2022-12-11T14:43:20;11.00;;;8.70;;
8042;SDS011;4064;48.132;11.366;2022-12-11T14:46:14;9.93;;;8.65;;
8042;SDS011;4064;48.132;11.366;2022-12-11T14:48:46;12.00;;;9.02;;
8042;SDS011;4064;48.132;11.366;2022-12-11T14:51:37;12.80;;;9.05;;
8042;SDS011;4064;48.132;11.366;2022-12-11T14:54:05;17.40;;;10.48;;
8042;SDS011;4064;48.132;11.366;2022-12-11T14:56:32;13.05;;;9.93;;
8042;SDS011;4064;48.132;11.366;2022-12-11T14:59:02;12.50;;;8.85;;
8042;SDS011;4064;48.132;11.366;2022-12-11T15:01:39;10.63;;;9.13;;
8042;SDS011;4064;48.132;11.366;2022-12-11T15:06:43;13.65;;;11.80;;
8042;SDS011;4064;48.132;11.366;2022-12-11T15:09:23;13.18;;;11.20;;
8042;SDS011;4064;48.132;11.366;2022-12-11T15:11:52;14.90;;;10.80;;
8042;SDS011;4064;48.132;11.366;2022-12-11T15:14:20;15.98;;;10.80;;
8042;SDS011;4064;48.132;11.366;2022-12-11T15:16:47;19.20;;;12.20;;
8042;SDS011;4064;48.132;11.366;2022-12-11T15:19:18;12.75;;;10.65;;
8042;SDS011;4064;48.132;11.366;2022-12-11T15:21:48;15.55;;;10.70;;
8042;SDS011;4064;48.132;11.366;2022-12-11T15:24:24;13.20;;;11.23;;
8042;SDS011;4064;48.132;11.366;2022-12-11T15:27:02;17.50;;;14.15;;
8042;SDS011;4064;48.132;11.366;2022-12-11T15:29:37;19.27;;;15.63;;
8042;SDS011;4064;48.132;11.366;2022-12-11T15:37:25;17.42;;;12.55;;
8042;SDS011;4064;48.132;11.366;2022-12-11T15:39:54;18.52;;;13.35;;
8042;SDS011;4064;48.132;11.366;2022-12-11T15:42:31;21.17;;;14.05;;
8042;SDS011;4064;48.132;11.366;2022-12-11T15:47:39;19.85;;;14.50;;
8042;SDS011;4064;48.132;11.366;2022-12-11T15:50:12;21.20;;;15.55;;
8042;SDS011;4064;48.132;11.366;2022-12-11T15:52:47;18.55;;;13.85;;
8042;SDS011;4064;48.132;11.366;2022-12-11T15:55:15;17.95;;;14.02;;
8042;SDS011;4064;48.132;11.366;2022-12-11T16:00:18;17.00;;;13.93;;
8042;SDS011;4064;48.132;11.366;2022-12-11T16:02:45;20.48;;;15.15;;
8042;SDS011;4064;48.132;11.366;2022-12-11T16:05:11;17.77;;;14.82;;
8042;SDS011;4064;48.132;11.366;2022-12-11T16:07:38;21.20;;;16.00;;
8042;SDS011;4064;48.132;11.366;2022-12-11T16:10:04;20.33;;;14.20;;
8042;SDS011;4064;48.132;11.366;2022-12-11T16:12:31;19.95;;;15.13;;
8042;SDS011;4064;48.132;11.366;2022-12-11T16:14:57;23.40;;;15.20;;
8042;SDS011;4064;48.132;11.366;2022-12-11T16:17:23;21.87;;;14.83;;
8042;SDS011;4064;48.132;11.366;2022-12-11T16:19:49;21.38;;;13.32;;
8042;SDS011;4064;48.132;11.366;2022-12-11T16:22:17;27.17;;;15.63;;
8042;SDS011;4064;48.132;11.366;2022-12-11T16:24:43;23.92;;;14.65;;
8042;SDS011;4064;48.132;11.366;2022-12-11T16:27:09;20.60;;;15.77;;
8042;SDS011;4064;48.132;11.366;2022-12-11T16:29:36;20.83;;;14.97;;
8042;SDS011;4064;48.132;11.366;2022-12-11T16:32:03;17.77;;;12.70;;